sensor_id;sensor_type;location;lat;lon;timestamp;P1;durP1;ratioP1;P2;durP2;ratioP2
56790;SDS011;42658;46.072;14.474;2022-07-25T00:00:23;9.23;;;7.72;;
56790;SDS011;42658;46.072;14.474;2022-07-25T00:02:50;8.27;;;7.45;;
56790;SDS011;42658;46.072;14.474;2022-07-25T00:05:16;9.18;;;8.05;;
56790;SDS011;42658;46.072;14.474;2022-07-25T00:07:43;9.35;;;7.82;;
56790;SDS011;42658;46.072;14.474;2022-07-25T00:10:10;8.63;;;7.60;;
56790;SDS011;42658;46.072;14.474;2022-07-25T00:12:37;9.38;;;8.35;;
56790;SDS011;42658;46.072;14.474;2022-07-25T00:15:04;9.13;;;8.23;;
56790;SDS011;42658;46.072;14.474;2022-07-25T00:17:32;9.55;;;7.65;;
56790;SDS011;42658;46.072;14.474;2022-07-25T00:19:59;9.30;;;8.23;;
56790;SDS011;42658;46.072;14.474;2022-07-25T00:22:26;8.88;;;7.97;;
56790;SDS011;42658;46.072;14.474;2022-07-25T00:24:53;8.85;;;7.45;;
56790;SDS011;42658;46.072;14.474;2022-07-25T00:27:20;9.25;;;7.95;;
56790;SDS011;42658;46.072;14.474;2022-07-25T00:29:47;8.75;;;7.68;;
56790;SDS011;42658;46.072;14.474;2022-07-25T00:32:14;8.73;;;7.65;;
56790;SDS011;42658;46.072;14.474;2022-07-25T00:34:41;8.32;;;7.53;;
56790;SDS011;42658;46.072;14.474;2022-07-25T00:37:08;8.48;;;7.57;;
56790;SDS011;42658;46.072;14.474;2022-07-25T00:39:35;8.98;;;8.07;;
56790;SDS011;42658;46.072;14.474;2022-07-25T00:42:02;9.05;;;8.13;;
56790;SDS011;42658;46.072;14.474;2022-07-25T00:44:30;8.38;;;7.57;;
56790;SDS011;42658;46.072;14.474;2022-07-25T00:46:58;9.77;;;8.38;;
56790;SDS011;42658;46.072;14.474;2022-07-25T00:49:25;8.27;;;7.38;;
56790;SDS011;42658;46.072;14.474;2022-07-25T00:51:52;10.10;;;7.80;;
56790;SDS011;42658;46.072;14.474;2022-07-25T00:54:20;8.68;;;7.78;;
56790;SDS011;42658;46.072;14.474;2022-07-25T00:56:48;10.13;;;8.75;;
56790;SDS011;42658;46.072;14.474;2022-07-25T00:59:15;8.45;;;7.50;;
56790;SDS011;42658;46.072;14.474;2022-07-25T01:01:42;9.05;;;8.15;;
56790;SDS011;42658;46.072;14.474;2022-07-25T01:04:13;9.05;;;7.72;;
56790;SDS011;42658;46.072;14.474;2022-07-25T01:06:40;9.40;;;7.82;;
56790;SDS011;42658;46.072;14.474;2022-07-25T01:09:08;8.77;;;7.80;;
56790;SDS011;42658;46.072;14.474;2022-07-25T01:11:35;8.88;;;7.95;;
56790;SDS011;42658;46.072;14.474;2022-07-25T01:14:02;11.20;;;8.32;;
56790;SDS011;42658;46.072;14.474;2022-07-25T01:16:29;9.20;;;8.30;;
56790;SDS011;42658;46.072;14.474;2022-07-25T01:18:56;9.07;;;7.95;;
56790;SDS011;42658;46.072;14.474;2022-07-25T01:21:23;8.65;;;7.75;;
56790;SDS011;42658;46.072;14.474;2022-07-25T01:23:51;9.60;;;8.00;;
56790;SDS011;42658;46.072;14.474;2022-07-25T01:26:18;8.77;;;7.88;;
56790;SDS011;42658;46.072;14.474;2022-07-25T01:28:45;8.98;;;8.07;;
56790;SDS011;42658;46.072;14.474;2022-07-25T01:31:12;8.48;;;7.53;;
56790;SDS011;42658;46.072;14.474;2022-07-25T01:33:39;10.23;;;8.52;;
56790;SDS011;42658;46.072;14.474;2022-07-25T01:36:06;8.90;;;8.00;;
56790;SDS011;42658;46.072;14.474;2022-07-25T01:38:33;9.73;;;7.95;;
56790;SDS011;42658;46.072;14.474;2022-07-25T01:41:00;8.48;;;7.57;;
56790;SDS011;42658;46.072;14.474;2022-07-25T01:43:26;9.82;;;8.27;;
56790;SDS011;42658;46.072;14.474;2022-07-25T01:45:53;8.65;;;7.78;;
56790;SDS011;42658;46.072;14.474;2022-07-25T01:48:20;8.93;;;8.02;;
56790;SDS011;42658;46.072;14.474;2022-07-25T01:50:47;8.93;;;8.02;;
56790;SDS011;42658;46.072;14.474;2022-07-25T01:53:15;9.52;;;7.57;;
56790;SDS011;42658;46.072;14.474;2022-07-25T01:55:43;8.80;;;7.90;;
56790;SDS011;42658;46.072;14.474;2022-07-25T01:58:11;8.35;;;7.50;;
56790;SDS011;42658;46.072;14.474;2022-07-25T02:00:38;8.75;;;7.85;;
56790;SDS011;42658;46.072;14.474;2022-07-25T02:03:05;10.30;;;8.18;;
56790;SDS011;42658;46.072;14.474;2022-07-25T02:05:50;9.73;;;8.00;;
56790;SDS011;42658;46.072;14.474;2022-07-25T02:08:17;10.27;;;8.40;;
56790;SDS011;42658;46.072;14.474;2022-07-25T02:13:40;10.10;;;8.20;;
56790;SDS011;42658;46.072;14.474;2022-07-25T02:16:08;10.20;;;7.75;;
56790;SDS011;42658;46.072;14.474;2022-07-25T02:18:34;8.98;;;7.43;;
56790;SDS011;42658;46.072;14.474;2022-07-25T02:21:01;11.07;;;7.72;;
56790;SDS011;42658;46.072;14.474;2022-07-25T02:23:39;9.43;;;7.43;;
56790;SDS011;42658;46.072;14.474;2022-07-25T02:26:07;8.93;;;7.90;;
56790;SDS011;42658;46.072;14.474;2022-07-25T02:28:34;9.70;;;8.70;;
56790;SDS011;42658;46.072;14.474;2022-07-25T02:31:01;9.15;;;8.07;;
56790;SDS011;42658;46.072;14.474;2022-07-25T02:33:28;9.35;;;8.13;;
56790;SDS011;42658;46.072;14.474;2022-07-25T02:35:55;9.18;;;8.10;;
56790;SDS011;42658;46.072;14.474;2022-07-25T02:38:22;8.98;;;8.07;;
56790;SDS011;42658;46.072;14.474;2022-07-25T02:40:49;10.02;;;8.50;;
56790;SDS011;42658;46.072;14.474;2022-07-25T02:43:18;9.35;;;8.40;;
56790;SDS011;42658;46.072;14.474;2022-07-25T02:45:45;15.07;;;8.82;;
56790;SDS011;42658;46.072;14.474;2022-07-25T02:48:12;14.82;;;8.82;;
56790;SDS011;42658;46.072;14.474;2022-07-25T02:50:40;19.88;;;9.60;;
56790;SDS011;42658;46.072;14.474;2022-07-25T02:53:06;26.92;;;10.15;;
56790;SDS011;42658;46.072;14.474;2022-07-25T02:55:33;16.85;;;9.48;;
56790;SDS011;42658;46.072;14.474;2022-07-25T02:58:00;14.63;;;8.50;;
56790;SDS011;42658;46.072;14.474;2022-07-25T03:00:27;12.90;;;8.82;;
56790;SDS011;42658;46.072;14.474;2022-07-25T03:02:55;13.77;;;8.10;;
56790;SDS011;42658;46.072;14.474;2022-07-25T03:05:23;10.82;;;9.32;;
56790;SDS011;42658;46.072;14.474;2022-07-25T03:07:51;13.73;;;9.15;;
56790;SDS011;42658;46.072;14.474;2022-07-25T03:10:18;17.20;;;9.38;;
56790;SDS011;42658;46.072;14.474;2022-07-25T03:12:45;12.05;;;8.75;;
56790;SDS011;42658;46.072;14.474;2022-07-25T03:15:12;14.85;;;9.30;;
56790;SDS011;42658;46.072;14.474;2022-07-25T03:17:39;11.68;;;9.18;;
56790;SDS011;42658;46.072;14.474;2022-07-25T03:20:07;14.13;;;9.75;;
56790;SDS011;42658;46.072;14.474;2022-07-25T03:22:35;14.63;;;9.63;;
56790;SDS011;42658;46.072;14.474;2022-07-25T03:25:02;18.20;;;9.90;;
56790;SDS011;42658;46.072;14.474;2022-07-25T03:27:29;16.50;;;9.13;;
56790;SDS011;42658;46.072;14.474;2022-07-25T03:29:56;13.27;;;9.25;;
56790;SDS011;42658;46.072;14.474;2022-07-25T03:32:23;15.43;;;9.18;;
56790;SDS011;42658;46.072;14.474;2022-07-25T03:34:50;15.05;;;9.50;;
56790;SDS011;42658;46.072;14.474;2022-07-25T03:37:17;14.50;;;8.88;;
56790;SDS011;42658;46.072;14.474;2022-07-25T03:39:44;12.90;;;9.00;;
56790;SDS011;42658;46.072;14.474;2022-07-25T03:42:11;15.25;;;9.82;;
56790;SDS011;42658;46.072;14.474;2022-07-25T03:44:38;10.82;;;9.20;;
56790;SDS011;42658;46.072;14.474;2022-07-25T03:47:05;11.15;;;9.40;;
56790;SDS011;42658;46.072;14.474;2022-07-25T03:49:32;11.85;;;9.20;;
56790;SDS011;42658;46.072;14.474;2022-07-25T03:51:59;11.68;;;9.30;;
56790;SDS011;42658;46.072;14.474;2022-07-25T03:54:27;10.98;;;9.27;;
56790;SDS011;42658;46.072;14.474;2022-07-25T03:56:54;11.90;;;9.95;;
56790;SDS011;42658;46.072;14.474;2022-07-25T03:59:21;12.07;;;9.82;;
56790;SDS011;42658;46.072;14.474;2022-07-25T04:01:48;10.20;;;9.13;;
56790;SDS011;42658;46.072;14.474;2022-07-25T04:04:16;10.40;;;9.30;;
56790;SDS011;42658;46.072;14.474;2022-07-25T04:06:44;10.75;;;9.57;;
56790;SDS011;42658;46.072;14.474;2022-07-25T04:09:12;9.85;;;8.85;;
56790;SDS011;42658;46.072;14.474;2022-07-25T04:11:40;11.13;;;9.05;;
56790;SDS011;42658;46.072;14.474;2022-07-25T04:14:08;12.40;;;9.32;;
56790;SDS011;42658;46.072;14.474;2022-07-25T04:16:35;10.32;;;9.18;;
56790;SDS011;42658;46.072;14.474;2022-07-25T04:19:04;11.40;;;9.48;;
56790;SDS011;42658;46.072;14.474;2022-07-25T04:21:31;9.45;;;8.55;;
56790;SDS011;42658;46.072;14.474;2022-07-25T04:23:58;10.80;;;8.95;;
56790;SDS011;42658;46.072;14.474;2022-07-25T04:26:25;11.57;;;9.20;;
56790;SDS011;42658;46.072;14.474;2022-07-25T04:28:52;11.50;;;9.15;;
56790;SDS011;42658;46.072;14.474;2022-07-25T04:31:19;9.35;;;8.43;;
56790;SDS011;42658;46.072;14.474;2022-07-25T04:33:46;9.50;;;8.50;;
56790;SDS011;42658;46.072;14.474;2022-07-25T04:36:13;9.18;;;8.27;;
56790;SDS011;42658;46.072;14.474;2022-07-25T04:38:40;10.38;;;8.85;;
56790;SDS011;42658;46.072;14.474;2022-07-25T04:41:07;10.75;;;8.48;;
56790;SDS011;42658;46.072;14.474;2022-07-25T04:43:33;10.20;;;8.38;;
56790;SDS011;42658;46.072;14.474;2022-07-25T04:46:00;10.68;;;8.07;;
56790;SDS011;42658;46.072;14.474;2022-07-25T04:48:28;9.23;;;8.32;;
56790;SDS011;42658;46.072;14.474;2022-07-25T04:50:55;9.70;;;8.32;;
56790;SDS011;42658;46.072;14.474;2022-07-25T04:53:21;9.63;;;8.73;;
56790;SDS011;42658;46.072;14.474;2022-07-25T04:55:48;9.40;;;8.25;;
56790;SDS011;42658;46.072;14.474;2022-07-25T04:58:15;9.05;;;8.15;;
56790;SDS011;42658;46.072;14.474;2022-07-25T05:00:42;9.55;;;7.88;;
56790;SDS011;42658;46.072;14.474;2022-07-25T05:03:10;8.55;;;7.65;;
56790;SDS011;42658;46.072;14.474;2022-07-25T05:05:36;8.85;;;7.95;;
56790;SDS011;42658;46.072;14.474;2022-07-25T05:08:03;8.43;;;7.63;;
56790;SDS011;42658;46.072;14.474;2022-07-25T05:10:30;8.85;;;7.95;;
56790;SDS011;42658;46.072;14.474;2022-07-25T05:12:57;10.07;;;7.53;;
56790;SDS011;42658;46.072;14.474;2022-07-25T05:15:24;8.75;;;7.85;;
56790;SDS011;42658;46.072;14.474;2022-07-25T05:17:51;8.38;;;7.57;;
56790;SDS011;42658;46.072;14.474;2022-07-25T05:20:18;8.80;;;8.00;;
56790;SDS011;42658;46.072;14.474;2022-07-25T05:22:45;8.43;;;7.63;;
56790;SDS011;42658;46.072;14.474;2022-07-25T05:25:12;8.93;;;8.02;;
56790;SDS011;42658;46.072;14.474;2022-07-25T05:27:39;8.65;;;7.75;;
56790;SDS011;42658;46.072;14.474;2022-07-25T05:30:07;10.23;;;8.40;;
56790;SDS011;42658;46.072;14.474;2022-07-25T05:32:35;8.70;;;7.38;;
56790;SDS011;42658;46.072;14.474;2022-07-25T05:35:03;7.95;;;7.20;;
56790;SDS011;42658;46.072;14.474;2022-07-25T05:37:31;8.35;;;7.55;;
56790;SDS011;42658;46.072;14.474;2022-07-25T05:39:58;8.20;;;7.40;;
56790;SDS011;42658;46.072;14.474;2022-07-25T05:42:25;7.82;;;7.03;;
56790;SDS011;42658;46.072;14.474;2022-07-25T05:44:52;8.75;;;7.85;;
56790;SDS011;42658;46.072;14.474;2022-07-25T05:47:19;9.05;;;7.72;;
56790;SDS011;42658;46.072;14.474;2022-07-25T05:49:46;8.77;;;7.88;;
56790;SDS011;42658;46.072;14.474;2022-07-25T05:52:13;9.10;;;8.20;;
56790;SDS011;42658;46.072;14.474;2022-07-25T05:54:40;8.75;;;7.50;;
56790;SDS011;42658;46.072;14.474;2022-07-25T05:57:08;8.65;;;7.75;;
56790;SDS011;42658;46.072;14.474;2022-07-25T05:59:34;8.43;;;7.60;;
56790;SDS011;42658;46.072;14.474;2022-07-25T06:02:01;8.88;;;7.75;;
56790;SDS011;42658;46.072;14.474;2022-07-25T06:04:28;8.23;;;7.43;;
56790;SDS011;42658;46.072;14.474;2022-07-25T06:06:55;8.77;;;7.55;;
56790;SDS011;42658;46.072;14.474;2022-07-25T06:09:22;8.27;;;7.43;;
56790;SDS011;42658;46.072;14.474;2022-07-25T06:11:49;7.78;;;7.07;;
56790;SDS011;42658;46.072;14.474;2022-07-25T06:14:26;8.00;;;7.20;;
56790;SDS011;42658;46.072;14.474;2022-07-25T06:16:54;7.80;;;7.00;;
56790;SDS011;42658;46.072;14.474;2022-07-25T06:19:21;8.15;;;7.40;;
56790;SDS011;42658;46.072;14.474;2022-07-25T06:21:48;8.23;;;7.43;;
56790;SDS011;42658;46.072;14.474;2022-07-25T06:24:15;8.35;;;7.00;;
56790;SDS011;42658;46.072;14.474;2022-07-25T06:26:42;9.07;;;7.82;;
56790;SDS011;42658;46.072;14.474;2022-07-25T06:29:09;8.20;;;7.28;;
56790;SDS011;42658;46.072;14.474;2022-07-25T06:31:36;8.25;;;7.35;;
56790;SDS011;42658;46.072;14.474;2022-07-25T06:34:03;7.95;;;7.15;;
56790;SDS011;42658;46.072;14.474;2022-07-25T06:36:30;8.07;;;7.28;;
56790;SDS011;42658;46.072;14.474;2022-07-25T06:38:58;8.10;;;7.30;;
56790;SDS011;42658;46.072;14.474;2022-07-25T06:41:25;8.30;;;7.50;;
56790;SDS011;42658;46.072;14.474;2022-07-25T06:43:52;7.70;;;7.00;;
56790;SDS011;42658;46.072;14.474;2022-07-25T06:46:19;8.18;;;7.38;;
56790;SDS011;42658;46.072;14.474;2022-07-25T06:48:46;8.18;;;7.30;;
56790;SDS011;42658;46.072;14.474;2022-07-25T06:51:13;8.05;;;7.25;;
56790;SDS011;42658;46.072;14.474;2022-07-25T06:53:40;7.93;;;6.95;;
56790;SDS011;42658;46.072;14.474;2022-07-25T06:56:07;7.85;;;7.05;;
56790;SDS011;42658;46.072;14.474;2022-07-25T06:58:38;8.10;;;7.22;;
56790;SDS011;42658;46.072;14.474;2022-07-25T07:01:05;8.40;;;7.60;;
56790;SDS011;42658;46.072;14.474;2022-07-25T07:03:33;7.63;;;6.88;;
56790;SDS011;42658;46.072;14.474;2022-07-25T07:06:04;7.93;;;6.95;;
56790;SDS011;42658;46.072;14.474;2022-07-25T07:08:32;8.15;;;7.10;;
56790;SDS011;42658;46.072;14.474;2022-07-25T07:10:59;8.25;;;7.43;;
56790;SDS011;42658;46.072;14.474;2022-07-25T07:13:26;7.78;;;7.07;;
56790;SDS011;42658;46.072;14.474;2022-07-25T07:15:53;7.90;;;6.85;;
56790;SDS011;42658;46.072;14.474;2022-07-25T07:18:21;7.70;;;6.90;;
56790;SDS011;42658;46.072;14.474;2022-07-25T07:20:48;8.63;;;7.15;;
56790;SDS011;42658;46.072;14.474;2022-07-25T07:23:15;7.22;;;6.53;;
56790;SDS011;42658;46.072;14.474;2022-07-25T07:25:44;7.30;;;6.50;;
56790;SDS011;42658;46.072;14.474;2022-07-25T07:28:12;7.85;;;7.10;;
56790;SDS011;42658;46.072;14.474;2022-07-25T07:30:39;7.95;;;7.15;;
56790;SDS011;42658;46.072;14.474;2022-07-25T07:33:26;7.68;;;6.93;;
56790;SDS011;42658;46.072;14.474;2022-07-25T07:35:53;8.10;;;7.30;;
56790;SDS011;42658;46.072;14.474;2022-07-25T07:38:22;7.00;;;6.30;;
56790;SDS011;42658;46.072;14.474;2022-07-25T07:40:49;7.50;;;6.70;;
56790;SDS011;42658;46.072;14.474;2022-07-25T07:43:17;7.88;;;6.93;;
56790;SDS011;42658;46.072;14.474;2022-07-25T07:45:44;7.72;;;6.85;;
56790;SDS011;42658;46.072;14.474;2022-07-25T07:48:11;7.43;;;6.72;;
56790;SDS011;42658;46.072;14.474;2022-07-25T07:50:38;7.40;;;6.57;;
56790;SDS011;42658;46.072;14.474;2022-07-25T07:53:06;7.47;;;6.68;;
56790;SDS011;42658;46.072;14.474;2022-07-25T07:55:33;7.22;;;6.53;;
56790;SDS011;42658;46.072;14.474;2022-07-25T07:58:15;7.97;;;7.18;;
56790;SDS011;42658;46.072;14.474;2022-07-25T08:00:43;6.93;;;6.22;;
56790;SDS011;42658;46.072;14.474;2022-07-25T08:03:11;7.40;;;6.70;;
56790;SDS011;42658;46.072;14.474;2022-07-25T08:05:39;7.63;;;6.80;;
56790;SDS011;42658;46.072;14.474;2022-07-25T08:08:10;8.13;;;6.88;;
56790;SDS011;42658;46.072;14.474;2022-07-25T08:10:39;7.70;;;6.90;;
56790;SDS011;42658;46.072;14.474;2022-07-25T08:13:15;7.57;;;6.85;;
56790;SDS011;42658;46.072;14.474;2022-07-25T08:15:44;7.50;;;6.68;;
56790;SDS011;42658;46.072;14.474;2022-07-25T08:18:12;7.50;;;6.70;;
56790;SDS011;42658;46.072;14.474;2022-07-25T08:20:46;7.18;;;6.47;;
56790;SDS011;42658;46.072;14.474;2022-07-25T08:23:14;7.47;;;6.78;;
56790;SDS011;42658;46.072;14.474;2022-07-25T08:25:41;7.47;;;6.78;;
56790;SDS011;42658;46.072;14.474;2022-07-25T08:28:09;7.03;;;6.32;;
56790;SDS011;42658;46.072;14.474;2022-07-25T08:30:37;7.30;;;6.60;;
56790;SDS011;42658;46.072;14.474;2022-07-25T08:33:06;7.22;;;6.53;;
56790;SDS011;42658;46.072;14.474;2022-07-25T08:35:36;7.13;;;6.43;;
56790;SDS011;42658;46.072;14.474;2022-07-25T08:38:03;7.20;;;6.50;;
56790;SDS011;42658;46.072;14.474;2022-07-25T08:40:31;7.32;;;6.63;;
56790;SDS011;42658;46.072;14.474;2022-07-25T08:42:59;7.35;;;6.65;;
56790;SDS011;42658;46.072;14.474;2022-07-25T08:45:27;7.28;;;6.57;;
56790;SDS011;42658;46.072;14.474;2022-07-25T08:47:54;7.63;;;6.82;;
56790;SDS011;42658;46.072;14.474;2022-07-25T08:50:26;7.28;;;6.57;;
56790;SDS011;42658;46.072;14.474;2022-07-25T08:52:53;7.18;;;6.47;;
56790;SDS011;42658;46.072;14.474;2022-07-25T08:55:41;7.22;;;6.43;;
56790;SDS011;42658;46.072;14.474;2022-07-25T08:58:11;6.90;;;6.20;;
56790;SDS011;42658;46.072;14.474;2022-07-25T09:00:39;7.32;;;6.63;;
56790;SDS011;42658;46.072;14.474;2022-07-25T09:03:07;7.15;;;6.45;;
56790;SDS011;42658;46.072;14.474;2022-07-25T09:05:35;7.50;;;6.80;;
56790;SDS011;42658;46.072;14.474;2022-07-25T09:10:44;7.53;;;6.78;;
56790;SDS011;42658;46.072;14.474;2022-07-25T09:13:12;6.57;;;5.97;;
56790;SDS011;42658;46.072;14.474;2022-07-25T09:18:16;7.10;;;6.40;;
56790;SDS011;42658;46.072;14.474;2022-07-25T09:20:45;7.45;;;6.75;;
56790;SDS011;42658;46.072;14.474;2022-07-25T09:23:33;7.13;;;6.43;;
56790;SDS011;42658;46.072;14.474;2022-07-25T09:26:02;6.78;;;6.18;;
56790;SDS011;42658;46.072;14.474;2022-07-25T09:28:29;7.25;;;6.55;;
56790;SDS011;42658;46.072;14.474;2022-07-25T09:30:57;7.03;;;6.32;;
56790;SDS011;42658;46.072;14.474;2022-07-25T09:33:26;7.03;;;6.07;;
56790;SDS011;42658;46.072;14.474;2022-07-25T09:35:54;6.90;;;6.20;;
56790;SDS011;42658;46.072;14.474;2022-07-25T09:38:22;6.80;;;6.20;;
56790;SDS011;42658;46.072;14.474;2022-07-25T09:40:55;6.32;;;5.72;;
56790;SDS011;42658;46.072;14.474;2022-07-25T09:43:38;6.68;;;6.05;;
56790;SDS011;42658;46.072;14.474;2022-07-25T09:46:06;6.93;;;6.22;;
56790;SDS011;42658;46.072;14.474;2022-07-25T09:48:34;7.20;;;6.50;;
56790;SDS011;42658;46.072;14.474;2022-07-25T09:51:02;7.10;;;6.40;;
56790;SDS011;42658;46.072;14.474;2022-07-25T09:53:29;6.43;;;5.82;;
56790;SDS011;42658;46.072;14.474;2022-07-25T09:55:57;6.72;;;5.97;;
56790;SDS011;42658;46.072;14.474;2022-07-25T09:58:24;6.65;;;6.05;;
56790;SDS011;42658;46.072;14.474;2022-07-25T10:00:53;6.82;;;6.20;;
56790;SDS011;42658;46.072;14.474;2022-07-25T10:06:20;6.05;;;5.47;;
56790;SDS011;42658;46.072;14.474;2022-07-25T10:09:02;6.38;;;5.78;;
56790;SDS011;42658;46.072;14.474;2022-07-25T10:11:29;6.55;;;5.95;;
56790;SDS011;42658;46.072;14.474;2022-07-25T10:13:56;6.82;;;6.13;;
56790;SDS011;42658;46.072;14.474;2022-07-25T10:16:43;6.63;;;6.00;;
56790;SDS011;42658;46.072;14.474;2022-07-25T10:19:11;6.78;;;6.07;;
56790;SDS011;42658;46.072;14.474;2022-07-25T10:21:38;7.15;;;6.45;;
56790;SDS011;42658;46.072;14.474;2022-07-25T10:24:07;7.30;;;6.60;;
56790;SDS011;42658;46.072;14.474;2022-07-25T10:26:36;6.90;;;6.20;;
56790;SDS011;42658;46.072;14.474;2022-07-25T10:29:10;6.93;;;6.22;;
56790;SDS011;42658;46.072;14.474;2022-07-25T10:31:42;6.65;;;6.00;;
56790;SDS011;42658;46.072;14.474;2022-07-25T10:34:26;6.60;;;5.95;;
56790;SDS011;42658;46.072;14.474;2022-07-25T10:37:07;6.35;;;5.75;;
56790;SDS011;42658;46.072;14.474;2022-07-25T10:39:44;6.13;;;5.55;;
56790;SDS011;42658;46.072;14.474;2022-07-25T10:42:16;6.03;;;5.53;;
56790;SDS011;42658;46.072;14.474;2022-07-25T10:44:47;6.45;;;5.85;;
56790;SDS011;42658;46.072;14.474;2022-07-25T10:47:15;6.20;;;5.60;;
56790;SDS011;42658;46.072;14.474;2022-07-25T10:49:44;6.22;;;5.63;;
56790;SDS011;42658;46.072;14.474;2022-07-25T10:52:38;6.63;;;6.03;;
56790;SDS011;42658;46.072;14.474;2022-07-25T10:55:06;6.05;;;5.45;;
56790;SDS011;42658;46.072;14.474;2022-07-25T10:57:34;6.82;;;6.22;;
56790;SDS011;42658;46.072;14.474;2022-07-25T11:00:20;6.30;;;5.70;;
56790;SDS011;42658;46.072;14.474;2022-07-25T11:02:48;6.00;;;5.45;;
56790;SDS011;42658;46.072;14.474;2022-07-25T11:05:15;6.72;;;6.13;;
56790;SDS011;42658;46.072;14.474;2022-07-25T11:07:49;6.55;;;5.85;;
56790;SDS011;42658;46.072;14.474;2022-07-25T11:10:37;6.57;;;5.70;;
56790;SDS011;42658;46.072;14.474;2022-07-25T11:13:08;6.30;;;5.70;;
56790;SDS011;42658;46.072;14.474;2022-07-25T11:15:35;6.22;;;5.63;;
56790;SDS011;42658;46.072;14.474;2022-07-25T11:18:02;6.55;;;5.95;;
56790;SDS011;42658;46.072;14.474;2022-07-25T11:20:29;6.25;;;5.65;;
56790;SDS011;42658;46.072;14.474;2022-07-25T11:22:56;6.15;;;5.55;;
56790;SDS011;42658;46.072;14.474;2022-07-25T11:25:23;6.35;;;5.75;;
56790;SDS011;42658;46.072;14.474;2022-07-25T11:28:00;5.93;;;5.32;;
56790;SDS011;42658;46.072;14.474;2022-07-25T11:30:28;6.60;;;5.88;;
56790;SDS011;42658;46.072;14.474;2022-07-25T11:32:56;6.13;;;5.53;;
56790;SDS011;42658;46.072;14.474;2022-07-25T11:35:25;6.15;;;5.55;;
56790;SDS011;42658;46.072;14.474;2022-07-25T11:37:53;5.88;;;5.35;;
56790;SDS011;42658;46.072;14.474;2022-07-25T11:40:20;6.10;;;5.47;;
56790;SDS011;42658;46.072;14.474;2022-07-25T11:42:48;6.30;;;5.70;;
56790;SDS011;42658;46.072;14.474;2022-07-25T11:48:09;6.10;;;5.50;;
56790;SDS011;42658;46.072;14.474;2022-07-25T11:50:43;6.10;;;5.50;;
56790;SDS011;42658;46.072;14.474;2022-07-25T11:53:11;6.47;;;5.88;;
56790;SDS011;42658;46.072;14.474;2022-07-25T11:55:41;6.65;;;5.50;;
56790;SDS011;42658;46.072;14.474;2022-07-25T11:58:09;6.30;;;5.70;;
56790;SDS011;42658;46.072;14.474;2022-07-25T12:00:39;6.68;;;5.32;;
56790;SDS011;42658;46.072;14.474;2022-07-25T12:03:11;6.32;;;5.72;;
56790;SDS011;42658;46.072;14.474;2022-07-25T12:05:46;6.28;;;5.68;;
56790;SDS011;42658;46.072;14.474;2022-07-25T12:08:14;5.75;;;5.10;;
56790;SDS011;42658;46.072;14.474;2022-07-25T12:10:45;5.70;;;5.20;;
56790;SDS011;42658;46.072;14.474;2022-07-25T12:13:23;6.30;;;5.70;;
56790;SDS011;42658;46.072;14.474;2022-07-25T12:15:51;6.30;;;5.70;;
56790;SDS011;42658;46.072;14.474;2022-07-25T12:18:18;6.10;;;5.57;;
56790;SDS011;42658;46.072;14.474;2022-07-25T12:20:45;6.30;;;5.70;;
56790;SDS011;42658;46.072;14.474;2022-07-25T12:23:12;5.95;;;5.35;;
56790;SDS011;42658;46.072;14.474;2022-07-25T12:25:41;5.82;;;5.22;;
56790;SDS011;42658;46.072;14.474;2022-07-25T12:28:09;5.60;;;5.10;;
56790;SDS011;42658;46.072;14.474;2022-07-25T12:30:37;5.97;;;5.30;;
56790;SDS011;42658;46.072;14.474;2022-07-25T12:33:05;5.55;;;5.05;;
56790;SDS011;42658;46.072;14.474;2022-07-25T12:35:32;5.75;;;5.18;;
56790;SDS011;42658;46.072;14.474;2022-07-25T12:37:59;5.72;;;5.07;;
56790;SDS011;42658;46.072;14.474;2022-07-25T12:40:26;6.40;;;5.80;;
56790;SDS011;42658;46.072;14.474;2022-07-25T12:42:53;5.90;;;5.30;;
56790;SDS011;42658;46.072;14.474;2022-07-25T12:45:20;6.00;;;5.40;;
56790;SDS011;42658;46.072;14.474;2022-07-25T12:47:48;6.50;;;5.88;;
56790;SDS011;42658;46.072;14.474;2022-07-25T12:50:15;6.07;;;5.47;;
56790;SDS011;42658;46.072;14.474;2022-07-25T12:52:44;6.05;;;5.45;;
56790;SDS011;42658;46.072;14.474;2022-07-25T12:55:13;6.03;;;5.53;;
56790;SDS011;42658;46.072;14.474;2022-07-25T12:57:41;6.10;;;5.50;;
56790;SDS011;42658;46.072;14.474;2022-07-25T13:00:10;6.20;;;5.60;;
56790;SDS011;42658;46.072;14.474;2022-07-25T13:02:38;6.40;;;5.80;;
56790;SDS011;42658;46.072;14.474;2022-07-25T13:05:06;6.30;;;5.70;;
56790;SDS011;42658;46.072;14.474;2022-07-25T13:07:33;5.65;;;5.15;;
56790;SDS011;42658;46.072;14.474;2022-07-25T13:10:00;6.50;;;5.88;;
56790;SDS011;42658;46.072;14.474;2022-07-25T13:12:29;6.00;;;5.40;;
56790;SDS011;42658;46.072;14.474;2022-07-25T13:14:57;6.05;;;5.45;;
56790;SDS011;42658;46.072;14.474;2022-07-25T13:17:24;6.07;;;5.57;;
56790;SDS011;42658;46.072;14.474;2022-07-25T13:19:53;5.93;;;5.40;;
56790;SDS011;42658;46.072;14.474;2022-07-25T13:22:21;6.30;;;5.70;;
56790;SDS011;42658;46.072;14.474;2022-07-25T13:24:48;6.32;;;5.72;;
56790;SDS011;42658;46.072;14.474;2022-07-25T13:27:16;6.13;;;5.63;;
56790;SDS011;42658;46.072;14.474;2022-07-25T13:29:44;6.43;;;5.68;;
56790;SDS011;42658;46.072;14.474;2022-07-25T13:32:12;5.80;;;5.30;;
56790;SDS011;42658;46.072;14.474;2022-07-25T13:34:39;6.20;;;5.60;;
56790;SDS011;42658;46.072;14.474;2022-07-25T13:37:06;6.50;;;5.90;;
56790;SDS011;42658;46.072;14.474;2022-07-25T13:39:33;5.63;;;5.13;;
56790;SDS011;42658;46.072;14.474;2022-07-25T13:42:01;6.20;;;5.60;;
56790;SDS011;42658;46.072;14.474;2022-07-25T13:44:28;6.35;;;5.75;;
56790;SDS011;42658;46.072;14.474;2022-07-25T13:46:55;6.18;;;5.57;;
56790;SDS011;42658;46.072;14.474;2022-07-25T13:49:24;6.18;;;5.57;;
56790;SDS011;42658;46.072;14.474;2022-07-25T13:51:51;6.20;;;5.60;;
56790;SDS011;42658;46.072;14.474;2022-07-25T13:54:18;5.75;;;5.25;;
56790;SDS011;42658;46.072;14.474;2022-07-25T13:56:45;6.28;;;5.68;;
56790;SDS011;42658;46.072;14.474;2022-07-25T13:59:12;6.50;;;5.90;;
56790;SDS011;42658;46.072;14.474;2022-07-25T14:01:46;6.40;;;5.80;;
56790;SDS011;42658;46.072;14.474;2022-07-25T14:04:13;6.13;;;5.53;;
56790;SDS011;42658;46.072;14.474;2022-07-25T14:06:40;6.25;;;5.65;;
56790;SDS011;42658;46.072;14.474;2022-07-25T14:09:08;6.22;;;5.63;;
56790;SDS011;42658;46.072;14.474;2022-07-25T14:11:35;6.40;;;5.80;;
56790;SDS011;42658;46.072;14.474;2022-07-25T14:14:02;5.95;;;5.15;;
56790;SDS011;42658;46.072;14.474;2022-07-25T14:16:29;6.28;;;5.68;;
56790;SDS011;42658;46.072;14.474;2022-07-25T14:18:56;6.40;;;5.78;;
56790;SDS011;42658;46.072;14.474;2022-07-25T14:21:23;5.97;;;5.47;;
56790;SDS011;42658;46.072;14.474;2022-07-25T14:23:50;6.10;;;5.50;;
56790;SDS011;42658;46.072;14.474;2022-07-25T14:26:17;5.72;;;5.22;;
56790;SDS011;42658;46.072;14.474;2022-07-25T14:28:44;5.60;;;5.10;;
56790;SDS011;42658;46.072;14.474;2022-07-25T14:31:11;5.78;;;5.03;;
56790;SDS011;42658;46.072;14.474;2022-07-25T14:33:38;5.78;;;5.18;;
56790;SDS011;42658;46.072;14.474;2022-07-25T14:36:06;5.72;;;5.22;;
56790;SDS011;42658;46.072;14.474;2022-07-25T14:38:34;6.15;;;5.47;;
56790;SDS011;42658;46.072;14.474;2022-07-25T14:41:01;5.55;;;5.05;;
56790;SDS011;42658;46.072;14.474;2022-07-25T14:43:34;5.70;;;5.10;;
56790;SDS011;42658;46.072;14.474;2022-07-25T14:46:01;6.00;;;5.40;;
56790;SDS011;42658;46.072;14.474;2022-07-25T14:48:28;6.50;;;5.82;;
56790;SDS011;42658;46.072;14.474;2022-07-25T14:50:55;5.95;;;5.35;;
56790;SDS011;42658;46.072;14.474;2022-07-25T14:53:22;5.68;;;5.13;;